Time;durP1;ratioP1;P1;durP2;ratioP2;P2;SDS_P1;SDS_P2;PMS_P1;PMS_P2;Temp;Humidity;BMP_temperature;BMP_pressure;BME280_temperature;BME280_humidity;BME280_pressure;Samples;Min_cycle;Max_cycle;Signal;HPM_P1;HPM_P2
2021/04/11 00:00:29;;;;;;;19.40;17.93;;;;;;;7.91;86.49;99820.06;5029510;28;20206;-77
2021/04/11 00:02:57;;;;;;;20.33;18.73;;;;;;;7.90;86.91;99820.91;5033575;28;20707;-77
2021/04/11 00:05:26;;;;;;;22.33;20.57;;;;;;;7.88;86.52;99815.75;5023386;28;20233;-77
2021/04/11 00:07:52;;;;;;;21.70;20.07;;;;;;;7.92;86.13;99809.59;5027760;28;20228;-77
2021/04/11 00:10:21;;;;;;;20.57;19.00;;;;;;;7.92;87.02;99812.19;5027246;28;20212;-77
2021/04/11 00:12:47;;;;;;;22.83;20.77;;;;;;;7.85;87.18;99797.63;5049029;22;523017;-79
2021/04/11 00:15:14;;;;;;;21.53;19.83;;;;;;;7.83;87.69;99806.31;5031514;28;20278;-77
2021/04/11 00:17:41;;;;;;;21.73;20.03;;;;;;;7.90;87.36;99803.56;5035981;28;20219;-77
2021/04/11 00:20:10;;;;;;;24.03;22.03;;;;;;;7.94;86.97;99794.84;5030081;28;20203;-77
2021/04/11 00:22:37;;;;;;;21.73;20.03;;;;;;;7.95;87.50;99796.56;5038520;28;20718;-77
2021/04/11 00:25:05;;;;;;;22.03;20.23;;;;;;;8.00;86.72;99803.41;5043055;28;20728;-77
2021/04/11 00:27:31;;;;;;;19.90;18.50;;;;;;;7.96;86.12;99790.47;5051108;28;20216;-78
2021/04/11 00:29:57;;;;;;;20.13;18.63;;;;;;;7.97;86.02;99793.94;5045290;28;20286;-79
2021/04/11 00:32:23;;;;;;;19.90;18.40;;;;;;;7.96;86.42;99785.28;5037504;28;20232;-79
2021/04/11 00:34:49;;;;;;;22.63;20.83;;;;;;;7.94;86.46;99789.63;5043486;28;20214;-79
2021/04/11 00:37:16;;;;;;;19.93;18.33;;;;;;;7.98;86.80;99784.41;5051467;28;20719;-79
2021/04/11 00:39:42;;;;;;;19.97;18.37;;;;;;;7.99;86.06;99784.38;5040410;28;20699;-77
2021/04/11 00:42:13;;;;;;;20.50;19.00;;;;;;;7.92;86.79;99781.00;5050473;28;20764;-77
2021/04/11 00:44:40;;;;;;;20.57;19.07;;;;;;;7.93;87.13;99772.34;5044153;28;20230;-77
2021/04/11 00:47:06;;;;;;;19.90;18.40;;;;;;;7.96;86.63;99774.03;5050126;28;20210;-77
2021/04/11 00:49:35;;;;;;;20.30;18.80;;;;;;;7.96;86.59;99763.63;5040977;28;20199;-77
2021/04/11 00:52:03;;;;;;;20.70;19.20;;;;;;;7.98;86.84;99767.06;5050396;28;20215;-77
2021/04/11 00:54:29;;;;;;;20.60;19.10;;;;;;;7.93;86.94;99756.75;5043984;28;20221;-77
2021/04/11 00:56:56;;;;;;;20.70;19.10;;;;;;;7.90;86.64;99750.75;5014634;28;20217;-77
2021/04/11 00:59:22;;;;;;;19.97;18.43;;;;;;;7.90;86.50;99758.56;5040394;28;20757;-77
2021/04/11 01:01:48;;;;;;;20.37;18.87;;;;;;;7.93;86.12;99758.50;5049379;28;20198;-77
2021/04/11 01:04:16;;;;;;;20.43;18.80;;;;;;;7.96;87.23;99754.09;5044724;28;20269;-77
2021/04/11 01:06:45;;;;;;;21.90;20.27;;;;;;;7.98;86.60;99745.41;5049726;28;20209;-77
2021/04/11 01:09:17;;;;;;;20.77;19.17;;;;;;;8.00;86.97;99746.25;5045643;28;20737;-77
2021/04/11 01:11:44;;;;;;;22.30;20.50;;;;;;;7.91;86.48;99740.34;5039815;28;20211;-77
2021/04/11 01:14:11;;;;;;;22.83;20.93;;;;;;;7.91;86.72;99740.34;5024691;28;20214;-77
2021/04/11 01:16:38;;;;;;;23.60;21.70;;;;;;;7.82;87.82;99743.09;5037937;28;20206;-77
2021/04/11 01:19:07;;;;;;;23.97;21.83;;;;;;;7.75;88.42;99744.97;5045048;28;20214;-77
2021/04/11 01:21:52;;;;;;;23.40;21.47;;;;;;;7.84;88.02;99738.75;5049006;28;20206;-77
2021/04/11 01:24:24;;;;;;;24.20;21.97;;;;;;;7.83;88.46;99738.75;5024208;28;20218;-77
2021/04/11 01:26:53;;;;;;;23.10;21.13;;;;;;;7.80;88.68;99737.09;5036327;28;20211;-77
2021/04/11 01:29:21;;;;;;;27.47;24.77;;;;;;;7.73;89.83;99736.34;5035509;28;20199;-77
2021/04/11 01:31:47;;;;;;;27.07;24.60;;;;;;;7.77;90.40;99739.75;5035001;28;20207;-77
2021/04/11 01:34:13;;;;;;;23.97;22.07;;;;;;;7.85;89.28;99732.66;5046000;28;20209;-77
2021/04/11 01:36:44;;;;;;;23.67;21.63;;;;;;;7.88;89.81;99727.41;5044728;28;20663;-77
2021/04/11 01:39:14;;;;;;;21.10;19.50;;;;;;;7.94;89.56;99735.06;5048389;28;20202;-77
2021/04/11 01:41:43;;;;;;;24.93;22.47;;;;;;;7.94;88.15;99735.06;5053200;28;20210;-77
2021/04/11 01:44:14;;;;;;;23.90;21.80;;;;;;;7.88;89.22;99722.19;5046363;28;20244;-77
2021/04/11 01:46:41;;;;;;;24.77;22.57;;;;;;;7.82;88.64;99726.66;5055698;28;20201;-77
2021/04/11 01:49:07;;;;;;;24.43;22.17;;;;;;;7.76;88.93;99717.25;5050702;28;20201;-77
2021/04/11 01:51:37;;;;;;;26.53;24.23;;;;;;;7.85;88.74;99721.41;5038729;28;20237;-77
2021/04/11 01:54:07;;;;;;;26.97;24.47;;;;;;;7.82;89.68;99716.28;5048589;28;20213;-77
2021/04/11 01:56:34;;;;;;;26.67;24.37;;;;;;;7.89;89.39;99700.53;5052436;28;20675;-77
2021/04/11 01:59:00;;;;;;;25.00;22.90;;;;;;;7.88;89.35;99697.97;5041388;28;20206;-77
2021/04/11 02:01:30;;;;;;;24.87;22.67;;;;;;;7.90;89.77;99704.84;5025174;28;20200;-77
2021/04/11 02:03:57;;;;;;;28.07;24.77;;;;;;;7.93;89.24;99694.41;5046765;28;20223;-77
2021/04/11 02:06:25;;;;;;;26.40;24.03;;;;;;;7.99;89.24;99697.75;5051042;28;20728;-77
2021/04/11 02:08:54;;;;;;;22.10;20.30;;;;;;;8.00;89.09;99689.91;5050775;28;20215;-77
2021/04/11 02:11:21;;;;;;;25.07;22.90;;;;;;;7.94;89.13;99695.25;5050632;28;20205;-78
2021/04/11 02:13:47;;;;;;;24.13;21.93;;;;;;;8.01;88.95;99685.56;5046151;28;20268;-79
2021/04/11 02:16:15;;;;;;;22.97;21.03;;;;;;;8.01;88.88;99686.44;5046753;28;20236;-79
2021/04/11 02:18:42;;;;;;;21.40;19.80;;;;;;;8.06;88.99;99676.78;5052370;28;20206;-77
2021/04/11 02:21:14;;;;;;;23.27;21.20;;;;;;;8.09;88.85;99673.28;5048485;28;20228;-77
2021/04/11 02:23:40;;;;;;;22.47;20.63;;;;;;;8.08;88.77;99668.97;5051213;28;20601;-77
2021/04/11 02:26:09;;;;;;;22.30;20.53;;;;;;;8.04;88.47;99668.16;5048206;28;20221;-78
2021/04/11 02:28:36;;;;;;;23.07;21.27;;;;;;;8.07;89.00;99668.13;5052231;28;20210;-77
2021/04/11 02:31:16;;;;;;;22.10;20.30;;;;;;;8.11;88.48;99672.38;5046764;28;20202;-77
2021/04/11 02:33:51;;;;;;;25.67;23.50;;;;;;;8.09;88.31;99663.75;5050748;28;20215;-77
2021/04/11 02:36:19;;;;;;;23.73;21.53;;;;;;;8.09;88.43;99663.75;5049760;28;20267;-77
2021/04/11 02:38:47;;;;;;;23.47;21.47;;;;;;;8.07;87.49;99668.13;5050623;28;20216;-77
2021/04/11 02:41:14;;;;;;;24.37;22.13;;;;;;;8.11;88.39;99653.31;5048947;28;20206;-77
2021/04/11 02:43:40;;;;;;;24.77;22.30;;;;;;;8.11;88.49;99659.38;5045123;28;20233;-77
2021/04/11 02:46:08;;;;;;;25.07;22.87;;;;;;;8.12;87.78;99657.63;5048936;28;20213;-77
2021/04/11 02:48:34;;;;;;;23.30;21.30;;;;;;;8.14;88.14;99654.09;5051287;28;20209;-77
2021/04/11 02:51:02;;;;;;;24.40;22.20;;;;;;;8.21;87.56;99651.38;5047014;28;20205;-77
2021/04/11 02:53:32;;;;;;;22.77;20.93;;;;;;;8.16;88.87;99654.06;5052298;28;20206;-77
2021/04/11 02:55:59;;;;;;;21.17;19.40;;;;;;;8.18;88.63;99652.28;5038561;28;20232;-77
2021/04/11 02:58:25;;;;;;;23.73;21.77;;;;;;;8.21;87.98;99660.03;5052061;28;20623;-77
2021/04/11 03:01:01;;;;;;;24.07;21.67;;;;;;;8.18;89.17;99660.06;5045483;28;20206;-77
2021/04/11 03:03:28;;;;;;;23.80;21.83;;;;;;;8.20;88.32;99654.84;5052803;28;20233;-77
2021/04/11 03:05:56;;;;;;;24.50;22.27;;;;;;;8.23;89.16;99658.25;5046096;28;20244;-77
2021/04/11 03:08:27;;;;;;;24.73;22.73;;;;;;;8.28;88.57;99661.59;5052754;28;20213;-77
2021/04/11 03:11:01;;;;;;;25.50;22.97;;;;;;;8.28;88.14;99658.97;5046130;28;20273;-79
2021/04/11 03:13:27;;;;;;;25.90;23.50;;;;;;;8.25;88.51;99653.88;5045923;28;20214;-79
2021/04/11 03:15:56;;;;;;;26.30;23.80;;;;;;;8.29;88.01;99654.66;5054342;28;20283;-79
2021/04/11 03:18:23;;;;;;;26.60;24.07;;;;;;;8.33;88.31;99651.94;5046553;28;20331;-79
2021/04/11 03:20:50;;;;;;;27.73;25.03;;;;;;;8.34;88.35;99648.47;5054756;28;20722;-79
2021/04/11 03:23:18;;;;;;;26.60;24.03;;;;;;;8.37;88.49;99650.13;5052911;28;20551;-79
2021/04/11 03:25:45;;;;;;;26.77;24.37;;;;;;;8.36;88.76;99651.00;5046823;28;20228;-79
2021/04/11 03:28:17;;;;;;;25.83;23.63;;;;;;;8.42;88.88;99647.47;5053426;28;20682;-79
2021/04/11 03:30:51;;;;;;;24.70;22.57;;;;;;;8.46;88.25;99652.56;5046431;28;20771;-77
2021/04/11 03:33:19;;;;;;;26.47;24.17;;;;;;;8.49;88.21;99643.84;5045479;28;20204;-77
2021/04/11 03:35:49;;;;;;;25.97;23.33;;;;;;;8.54;87.52;99647.16;5040443;28;20269;-77
2021/04/11 03:38:23;;;;;;;27.20;24.43;;;;;;;8.51;88.48;99655.06;5044744;28;20201;-77
2021/04/11 03:40:53;;;;;;;26.07;23.53;;;;;;;8.52;87.85;99647.22;5045430;28;20201;-77
2021/04/11 03:43:24;;;;;;;25.33;23.13;;;;;;;8.57;87.69;99652.31;5050913;28;20225;-77
2021/04/11 03:45:51;;;;;;;26.60;23.97;;;;;;;8.53;88.06;99648.91;5045241;28;20218;-77
2021/04/11 03:48:24;;;;;;;27.83;25.30;;;;;;;8.49;88.78;99639.47;5048917;28;20206;-77
2021/04/11 03:50:56;;;;;;;25.97;23.43;;;;;;;8.53;88.96;99638.53;5053624;28;20207;-77
2021/04/11 03:53:27;;;;;;;24.90;22.60;;;;;;;8.55;89.24;99630.69;5050943;28;20247;-77
2021/04/11 03:56:00;;;;;;;25.90;23.47;;;;;;;8.55;88.74;99623.72;5045054;28;20221;-77
2021/04/11 03:58:31;;;;;;;27.87;24.57;;;;;;;8.56;88.80;99616.78;5050936;28;20205;-76
2021/04/11 04:01:02;;;;;;;26.90;24.30;;;;;;;8.58;89.17;99608.94;5045247;28;20665;-77
2021/04/11 04:03:31;;;;;;;25.33;22.60;;;;;;;8.53;89.01;99593.44;5045416;28;20855;-77
2021/04/11 04:06:02;;;;;;;24.97;22.47;;;;;;;8.54;89.59;99600.34;5036669;28;20217;-77
2021/04/11 04:08:28;;;;;;;23.80;21.80;;;;;;;8.59;88.98;99588.09;5051719;28;20205;-77
2021/04/11 04:11:09;;;;;;;24.77;22.53;;;;;;;8.56;89.15;99580.34;5045011;28;20201;-77
2021/04/11 04:13:47;;;;;;;27.30;24.70;;;;;;;8.60;88.93;99581.13;5050245;28;20221;-77
2021/04/11 04:16:18;;;;;;;29.20;26.40;;;;;;;8.62;88.55;99588.03;5038685;28;20238;-77
2021/04/11 04:19:01;;;;;;;29.77;26.90;;;;;;;8.54;89.31;99589.94;5047592;28;20567;-76
2021/04/11 04:21:42;;;;;;;29.13;26.20;;;;;;;8.56;88.22;99588.16;5044776;28;20205;-78
2021/04/11 04:24:23;;;;;;;28.83;26.00;;;;;;;8.53;89.09;99586.50;5045641;28;20699;-77
2021/04/11 04:26:54;;;;;;;29.80;26.70;;;;;;;8.50;88.98;99591.78;5049796;28;20196;-77
2021/04/11 04:29:27;;;;;;;30.90;27.87;;;;;;;8.50;89.10;99590.91;5045537;28;20198;-77
2021/04/11 04:32:26;;;;;;;28.77;25.87;;;;;;;8.55;88.37;99592.50;5049474;28;20212;-76
2021/04/11 04:35:04;;;;;;;30.40;27.47;;;;;;;8.53;89.30;99609.91;5038404;28;20299;-77
2021/04/11 04:37:41;;;;;;;27.67;25.07;;;;;;;8.56;89.19;99595.97;5043155;28;20263;-76
2021/04/11 04:40:11;;;;;;;30.87;27.67;;;;;;;8.51;89.24;99595.25;5033640;28;20198;-76
2021/04/11 04:42:45;;;;;;;28.90;25.83;;;;;;;8.54;88.98;99598.63;5037401;28;20254;-77
2021/04/11 04:45:20;;;;;;;29.70;26.90;;;;;;;8.53;89.03;99591.69;5043698;28;20232;-77
2021/04/11 04:47:50;;;;;;;29.10;26.40;;;;;;;8.54;88.35;99587.34;5045145;28;20201;-76
2021/04/11 04:50:20;;;;;;;30.03;26.77;;;;;;;8.54;89.10;99587.34;5051982;28;20194;-77
2021/04/11 04:52:56;;;;;;;26.73;24.33;;;;;;;8.58;88.63;99588.13;5049111;28;20209;-77
2021/04/11 04:55:25;;;;;;;27.73;25.13;;;;;;;8.52;88.41;99600.41;5036990;28;20226;-77
2021/04/11 04:57:55;;;;;;;29.17;26.47;;;;;;;8.53;88.61;99594.31;5039533;28;20206;-78
2021/04/11 05:00:24;;;;;;;27.10;24.40;;;;;;;8.47;88.22;99591.84;5043582;28;20197;-77
2021/04/11 05:02:57;;;;;;;27.33;24.87;;;;;;;8.52;88.06;99594.31;5049547;28;20225;-77
2021/04/11 05:05:26;;;;;;;29.03;26.30;;;;;;;8.51;88.71;99587.44;5043700;28;20236;-78
2021/04/11 05:07:58;;;;;;;31.67;28.37;;;;;;;8.51;88.44;99601.28;5050316;28;20360;-77
2021/04/11 05:10:28;;;;;;;29.67;26.77;;;;;;;8.50;88.41;99589.19;5040469;28;20260;-77
2021/04/11 05:13:00;;;;;;;27.43;25.03;;;;;;;8.56;88.58;99595.97;5044048;28;20223;-77
2021/04/11 05:15:32;;;;;;;33.53;27.30;;;;;;;8.59;88.85;99588.09;5047667;28;20225;-77
2021/04/11 05:18:05;;;;;;;30.17;27.17;;;;;;;8.64;88.20;99587.97;5054098;28;20670;-77
2021/04/11 05:20:35;;;;;;;31.83;28.23;;;;;;;8.68;89.22;99587.88;5055903;28;20205;-77
2021/04/11 05:23:15;;;;;;;29.77;26.63;;;;;;;8.70;89.13;99588.69;5053380;28;20237;-77
2021/04/11 05:25:46;;;;;;;31.40;28.20;;;;;;;8.69;88.80;99599.97;5045807;28;20217;-78
2021/04/11 05:28:19;;;;;;;32.70;28.77;;;;;;;8.73;88.95;99599.00;5053560;28;20199;-77
2021/04/11 05:30:48;;;;;;;32.40;29.17;;;;;;;8.79;88.66;99594.56;5034382;28;20203;-77
2021/04/11 05:33:18;;;;;;;29.37;26.33;;;;;;;8.83;89.09;99604.84;5033407;28;20210;-77
2021/04/11 05:35:46;;;;;;;29.50;26.90;;;;;;;8.86;88.87;99609.97;5027626;28;20716;-77
2021/04/11 05:38:24;;;;;;;28.77;26.07;;;;;;;8.94;87.48;99607.19;5034584;28;20210;-78
2021/04/11 05:40:54;;;;;;;27.57;25.03;;;;;;;8.95;87.63;99604.53;5031672;28;20195;-77
2021/04/11 05:43:29;;;;;;;29.83;26.90;;;;;;;8.98;87.91;99611.41;5040341;28;20703;-77
2021/04/11 05:46:00;;;;;;;30.43;26.00;;;;;;;9.03;87.77;99611.28;5030473;28;20266;-77
2021/04/11 05:48:34;;;;;;;28.27;25.77;;;;;;;9.04;88.21;99608.66;5033683;28;20206;-78
2021/04/11 05:51:03;;;;;;;28.60;26.00;;;;;;;9.00;87.83;99609.63;5027291;28;20210;-78
2021/04/11 05:53:35;;;;;;;27.30;24.90;;;;;;;9.00;88.43;99608.75;5030838;28;20699;-78
2021/04/11 05:56:04;;;;;;;29.30;26.50;;;;;;;8.99;88.10;99605.31;5029253;28;20239;-78
2021/04/11 05:58:37;;;;;;;28.93;26.33;;;;;;;9.02;88.36;99612.16;5032896;28;20218;-78
2021/04/11 06:01:06;;;;;;;31.13;28.17;;;;;;;9.00;88.17;99612.22;5029565;28;20206;-77
2021/04/11 06:03:35;;;;;;;29.03;26.43;;;;;;;9.02;88.23;99612.16;5032123;28;20594;-78
2021/04/11 06:06:10;;;;;;;28.73;25.80;;;;;;;9.03;88.30;99613.88;5031253;28;20270;-78
2021/04/11 06:08:43;;;;;;;30.07;27.03;;;;;;;9.00;87.99;99612.22;5032632;28;20201;-76
2021/04/11 06:11:17;;;;;;;30.03;26.40;;;;;;;8.99;88.39;99618.31;5029910;28;20661;-77
2021/04/11 06:13:52;;;;;;;26.93;24.40;;;;;;;9.03;88.87;99611.28;5029144;28;20207;-77
2021/04/11 06:16:20;;;;;;;29.17;26.17;;;;;;;9.03;88.32;99614.72;5028182;28;20218;-76
2021/04/11 06:18:50;;;;;;;26.53;24.13;;;;;;;9.06;87.84;99617.28;5032723;28;20257;-76
2021/04/11 06:21:22;;;;;;;28.90;25.50;;;;;;;9.10;88.36;99611.09;5026077;28;20570;-76
2021/04/11 06:23:53;;;;;;;25.40;23.30;;;;;;;9.10;88.28;99610.25;5029794;28;20226;-77
2021/04/11 06:26:29;;;;;;;26.37;23.97;;;;;;;9.14;88.45;99604.06;5027463;28;20215;-76
2021/04/11 06:29:06;;;;;;;24.40;22.50;;;;;;;9.20;87.80;99605.66;5030423;28;20214;-76
2021/04/11 06:31:36;;;;;;;26.43;24.10;;;;;;;9.15;88.17;99611.81;5028535;28;20213;-76
2021/04/11 06:34:07;;;;;;;27.20;24.97;;;;;;;9.22;87.75;99619.47;5032079;28;20199;-76
2021/04/11 06:36:38;;;;;;;26.50;24.00;;;;;;;9.20;88.18;99624.72;5024824;28;20550;-77
2021/04/11 06:39:09;;;;;;;26.77;24.17;;;;;;;9.26;88.29;99621.94;5027656;28;20779;-76
2021/04/11 06:41:50;;;;;;;27.57;25.03;;;;;;;9.30;88.28;99625.34;5027577;28;20266;-76
2021/04/11 06:44:44;;;;;;;28.30;25.33;;;;;;;9.28;88.60;99621.91;5031222;28;20225;-76
2021/04/11 06:47:42;;;;;;;24.90;22.70;;;;;;;9.32;88.88;99621.78;5028325;28;20225;-76
2021/04/11 06:50:21;;;;;;;25.47;23.20;;;;;;;9.35;87.96;99623.44;5028753;28;20667;-77
2021/04/11 06:53:14;;;;;;;27.60;25.00;;;;;;;9.41;88.00;99622.44;5029772;28;20210;-76
2021/04/11 06:56:18;;;;;;;26.90;23.40;;;;;;;9.46;88.56;99621.41;5025629;28;20225;-77
2021/04/11 06:58:50;;;;;;;26.97;24.53;;;;;;;9.47;88.45;99628.31;5030105;28;20202;-76
2021/04/11 07:02:00;;;;;;;27.33;24.87;;;;;;;9.57;88.46;99628.06;5027024;28;20213;-77
2021/04/11 07:05:03;;;;;;;25.07;22.77;;;;;;;9.63;88.41;99622.69;5026476;28;20227;-77
2021/04/11 07:08:10;;;;;;;26.90;24.20;;;;;;;9.68;88.00;99616.44;5030415;28;20666;-77
2021/04/11 07:10:50;;;;;;;24.63;22.33;;;;;;;9.74;87.23;99621.47;5030256;28;20211;-76
2021/04/11 07:13:56;;;;;;;27.23;24.73;;;;;;;9.81;87.05;99611.75;5029467;28;20716;-76
2021/04/11 07:16:59;;;;;;;27.70;25.37;;;;;;;9.88;87.53;99609.81;5019362;28;20214;-76
2021/04/11 07:20:01;;;;;;;27.87;25.17;;;;;;;9.93;87.41;99610.53;5031162;28;20209;-77
2021/04/11 07:22:55;;;;;;;27.60;24.90;;;;;;;9.93;87.57;99623.56;5022975;28;20208;-77
2021/04/11 07:25:32;;;;;;;27.83;24.93;;;;;;;9.97;87.64;99616.50;5029664;28;20222;-76
2021/04/11 07:28:24;;;;;;;25.57;23.23;;;;;;;9.97;87.66;99622.59;5028735;28;20197;-77
2021/04/11 07:30:56;;;;;;;25.53;23.10;;;;;;;10.01;87.93;99618.09;5034136;28;20203;-76
2021/04/11 07:33:43;;;;;;;26.40;24.20;;;;;;;9.94;87.89;99620.06;5027282;28;20233;-77
2021/04/11 07:36:33;;;;;;;25.20;23.10;;;;;;;9.98;87.91;99626.88;5025866;28;20264;-76
2021/04/11 07:39:38;;;;;;;29.35;26.95;;;;;;;10.09;87.16;99630.03;5028789;28;20445;-77
2021/04/11 07:42:40;;;;;;;26.97;24.10;;;;;;;10.09;87.58;99630.03;5030010;28;20206;-75
2021/04/11 07:45:40;;;;;;;26.20;22.87;;;;;;;10.14;87.37;99622.91;5028848;28;20699;-77
2021/04/11 07:48:30;;;;;;;24.03;22.23;;;;;;;10.17;87.00;99629.81;5022621;28;20686;-77
2021/04/11 07:51:16;;;;;;;25.53;22.93;;;;;;;10.06;87.61;99634.47;5030149;28;20564;-75
2021/04/11 07:54:06;;;;;;;26.10;23.57;;;;;;;10.08;87.63;99638.75;5031631;28;20221;-75
2021/04/11 07:56:46;;;;;;;24.97;22.70;;;;;;;10.09;87.58;99626.56;5025492;28;20204;-75
2021/04/11 07:59:36;;;;;;;23.20;20.80;;;;;;;9.92;87.09;99640.94;5034051;28;20565;-76
2021/04/11 08:02:25;;;;;;;22.80;21.03;;;;;;;10.06;87.49;99637.09;5027177;28;20252;-76
2021/04/11 08:05:13;;;;;;;24.83;22.50;;;;;;;10.16;87.97;99640.28;5029505;28;20764;-76
2021/04/11 08:08:16;;;;;;;24.40;22.43;;;;;;;10.23;88.55;99631.38;5027500;28;20260;-76
2021/04/11 08:13:47;;;;;;;19.20;17.80;;;;;;;10.27;87.13;99654.69;5011507;22;20234;-77
2021/04/11 08:16:26;;;;;;;21.87;19.77;;;;;;;10.24;88.07;99654.78;5012349;28;20682;-78
2021/04/11 08:19:11;;;;;;;18.63;17.20;;;;;;;10.26;88.30;99649.53;5022707;28;20211;-78
2021/04/11 08:21:42;;;;;;;18.67;17.17;;;;;;;10.27;87.50;99657.31;5007573;28;20228;-78
2021/04/11 08:24:32;;;;;;;17.63;16.33;;;;;;;10.32;87.17;99660.66;4998406;28;20230;-78
2021/04/11 08:27:22;;;;;;;18.57;17.13;;;;;;;10.32;87.01;99665.84;5000621;28;20198;-78
2021/04/11 08:30:12;;;;;;;18.60;17.07;;;;;;;10.36;87.31;99671.84;5002730;28;20215;-78
2021/04/11 08:33:27;;;;;;;16.57;15.27;;;;;;;10.42;87.47;99670.81;5004101;28;20219;-78
2021/04/11 08:36:35;;;;;;;17.47;16.17;;;;;;;10.42;87.12;99676.03;4998715;28;20905;-77
2021/04/11 08:39:40;;;;;;;17.67;16.07;;;;;;;10.46;87.25;99682.84;4992337;28;20241;-76
2021/04/11 08:42:17;;;;;;;17.70;16.30;;;;;;;10.41;87.62;99684.78;5000688;28;20623;-77
2021/04/11 08:44:59;;;;;;;17.80;16.30;;;;;;;10.45;87.72;99686.38;5000173;28;20697;-76
2021/04/11 08:47:35;;;;;;;16.40;15.10;;;;;;;10.42;87.29;99682.09;4995610;28;20737;-77
2021/04/11 08:50:06;;;;;;;17.03;15.40;;;;;;;10.41;87.17;99684.78;4993945;28;20199;-77
2021/04/11 08:52:43;;;;;;;14.93;13.77;;;;;;;10.39;86.53;99689.19;4999447;28;20230;-77
2021/04/11 08:55:19;;;;;;;13.63;12.53;;;;;;;10.33;85.90;99683.22;5003119;28;20199;-76
2021/04/11 08:58:06;;;;;;;13.13;12.13;;;;;;;10.35;85.84;99691.03;5001670;28;20209;-76
2021/04/11 09:00:38;;;;;;;10.10;9.40;;;;;;;10.24;84.80;99685.22;4996736;28;20238;-75
2021/04/11 09:03:22;;;;;;;10.47;9.67;;;;;;;10.31;85.07;99686.81;5002772;28;20218;-77
2021/04/11 09:05:57;;;;;;;11.13;9.90;;;;;;;10.34;86.03;99687.53;5002117;28;20207;-76
2021/04/11 09:08:30;;;;;;;9.53;8.73;;;;;;;10.29;84.88;99683.34;4999600;28;20214;-77
2021/04/11 09:11:25;;;;;;;8.83;8.13;;;;;;;10.45;85.75;99686.38;5003370;28;20624;-76
2021/04/11 09:14:03;;;;;;;8.60;7.90;;;;;;;10.43;84.20;99704.69;5002295;28;20214;-75
2021/04/11 09:16:42;;;;;;;9.80;9.00;;;;;;;10.36;84.78;99712.75;4991436;28;20262;-76
2021/04/11 09:19:20;;;;;;;9.63;8.90;;;;;;;10.32;83.64;99712.81;4997492;28;20206;-76
2021/04/11 09:22:19;;;;;;;10.43;9.60;;;;;;;10.41;84.31;99713.47;5002560;28;20252;-76
2021/04/11 09:24:50;;;;;;;10.37;9.63;;;;;;;10.54;84.74;99730.44;5001339;28;20240;-76
2021/04/11 09:27:38;;;;;;;12.00;11.10;;;;;;;10.40;83.85;99725.63;4998748;28;20211;-77
2021/04/11 09:30:12;;;;;;;11.93;11.13;;;;;;;10.20;84.21;99741.00;4998197;28;20219;-77
2021/04/11 09:32:58;;;;;;;9.37;8.67;;;;;;;9.95;84.46;99736.47;4993771;28;20226;-77
2021/04/11 09:35:40;;;;;;;4.77;4.47;;;;;;;9.86;84.03;99736.72;4995024;28;20204;-78
2021/04/11 09:38:39;;;;;;;5.43;5.13;;;;;;;9.79;84.81;99730.84;4995224;28;20206;-78
2021/04/11 09:41:33;;;;;;;5.03;4.63;;;;;;;9.64;85.19;99739.06;4991393;28;20235;-77
2021/04/11 09:44:17;;;;;;;4.13;3.93;;;;;;;9.50;85.28;99740.25;4993359;28;20219;-77
2021/04/11 09:46:57;;;;;;;4.50;4.20;;;;;;;9.58;86.33;99745.28;4997582;28;20207;-78
2021/04/11 09:49:37;;;;;;;4.60;4.30;;;;;;;9.55;86.04;99745.34;5008302;28;20215;-77
2021/04/11 09:52:38;;;;;;;4.60;4.20;;;;;;;9.50;85.68;99742.88;4997719;28;20226;-77
2021/04/11 09:55:14;;;;;;;3.80;3.60;;;;;;;9.41;86.19;99753.50;4994096;28;20191;-77
2021/04/11 09:57:51;;;;;;;4.90;4.60;;;;;;;9.32;86.43;99759.81;5009081;28;20208;-77
2021/04/11 10:00:23;;;;;;;4.30;3.90;;;;;;;9.32;87.11;99757.22;5013173;28;20203;-77
2021/04/11 10:03:06;;;;;;;4.50;3.97;;;;;;;9.31;86.02;99763.31;5000227;28;20231;-78
2021/04/11 10:05:44;;;;;;;3.87;3.67;;;;;;;9.21;86.62;99768.78;5013576;28;20293;-78
2021/04/11 10:08:20;;;;;;;4.37;4.00;;;;;;;9.24;87.01;99768.72;5008154;28;20207;-78
2021/04/11 10:11:05;;;;;;;5.53;5.13;;;;;;;9.38;87.10;99774.44;5004788;28;20265;-78
2021/04/11 10:13:41;;;;;;;4.80;4.40;;;;;;;9.39;87.48;99772.69;5010931;28;20677;-78
2021/04/11 10:16:19;;;;;;;6.20;5.60;;;;;;;9.29;87.72;99778.09;5005384;28;20206;-78
2021/04/11 10:19:05;;;;;;;6.23;5.83;;;;;;;9.14;88.37;99779.34;5005225;28;20295;-77
2021/04/11 10:21:40;;;;;;;7.95;7.35;;;;;;;9.21;88.46;99787.00;5002262;28;20475;-79
2021/04/11 10:24:23;;;;;;;7.20;6.70;;;;;;;9.18;88.80;99780.13;5004035;28;20647;-78
2021/04/11 10:26:57;;;;;;;5.30;4.80;;;;;;;9.26;87.94;99779.97;5005540;28;20211;-78
2021/04/11 10:29:25;;;;;;;5.17;4.87;;;;;;;9.15;88.65;99780.19;5006670;28;20258;-78
2021/04/11 10:31:57;;;;;;;6.07;5.60;;;;;;;9.08;88.72;99778.66;4997968;28;20239;-78
2021/04/11 10:34:31;;;;;;;5.37;5.03;;;;;;;8.94;89.81;99784.19;5009814;28;20206;-77
2021/04/11 10:37:06;;;;;;;5.60;5.13;;;;;;;9.10;90.16;99772.50;5004435;28;20207;-78
2021/04/11 10:39:42;;;;;;;7.00;6.60;;;;;;;9.23;89.29;99777.41;5009415;28;20208;-78
2021/04/11 10:42:21;;;;;;;7.27;6.77;;;;;;;9.13;90.32;99777.63;5001210;28;20319;-78
2021/04/11 10:45:01;;;;;;;6.50;6.00;;;;;;;9.16;90.25;99776.72;5000612;28;20242;-78
2021/04/11 10:47:47;;;;;;;6.77;6.37;;;;;;;9.06;90.76;99791.69;4994843;28;20207;-78
2021/04/11 10:50:19;;;;;;;4.93;4.63;;;;;;;9.18;89.48;99787.94;5010823;28;20223;-78
2021/04/11 10:53:01;;;;;;;4.97;4.67;;;;;;;9.30;89.64;99789.41;5002646;28;20293;-79
2021/04/11 10:55:48;;;;;;;3.70;3.40;;;;;;;9.51;88.46;99785.41;4999472;28;20230;-79
2021/04/11 10:58:40;;;;;;;4.50;4.20;;;;;;;9.45;87.87;99794.22;5003753;28;20217;-78
2021/04/11 11:01:22;;;;;;;3.40;3.20;;;;;;;9.33;87.64;99797.13;4993976;28;20224;-78
2021/04/11 11:04:28;;;;;;;3.77;3.47;;;;;;;9.29;87.01;99798.09;4999984;28;20584;-77
2021/04/11 11:07:20;;;;;;;2.93;2.73;;;;;;;9.23;86.55;99803.47;5001907;28;20210;-77
2021/04/11 11:09:50;;;;;;;2.77;2.57;;;;;;;9.18;85.85;99813.09;5003412;28;20207;-77
2021/04/11 11:12:45;;;;;;;2.27;2.17;;;;;;;9.14;86.22;99813.19;5008858;28;20230;-77
2021/04/11 11:15:24;;;;;;;2.70;2.60;;;;;;;9.17;86.03;99808.81;5000752;28;20592;-76
2021/04/11 11:18:05;;;;;;;3.30;3.03;;;;;;;9.17;86.02;99814.03;5005453;28;20214;-77
2021/04/11 11:20:37;;;;;;;5.13;4.83;;;;;;;9.10;86.22;99823.72;5003235;28;20206;-78
2021/04/11 11:23:26;;;;;;;6.80;6.40;;;;;;;8.97;85.25;99838.75;5007015;28;20241;-78
2021/04/11 11:26:06;;;;;;;7.93;7.23;;;;;;;8.69;85.06;99865.38;4998118;28;20203;-77
2021/04/11 11:29:10;;;;;;;7.70;7.13;;;;;;;8.46;85.91;99864.97;5012520;28;20673;-77
2021/04/11 11:31:45;;;;;;;8.90;8.30;;;;;;;8.35;86.10;99873.81;5004304;28;20218;-78
2021/04/11 11:34:25;;;;;;;8.87;8.27;;;;;;;8.23;85.90;99866.25;5009910;28;20206;-78
2021/04/11 11:37:06;;;;;;;8.57;7.97;;;;;;;8.15;85.81;99868.13;4992471;28;20206;-77
2021/04/11 11:39:38;;;;;;;8.53;7.83;;;;;;;8.00;86.21;99874.44;5006362;28;20329;-77
2021/04/11 11:42:15;;;;;;;10.83;10.03;;;;;;;8.07;86.69;99878.66;5001146;28;20219;-78
2021/04/11 11:44:56;;;;;;;10.17;9.30;;;;;;;7.94;86.68;99884.94;5011499;28;20232;-77
2021/04/11 11:47:27;;;;;;;9.97;9.27;;;;;;;7.91;86.40;99880.66;5000447;28;20201;-78
2021/04/11 11:50:00;;;;;;;10.20;9.40;;;;;;;7.86;85.96;99876.44;5011841;28;20221;-78
2021/04/11 11:52:37;;;;;;;9.73;9.03;;;;;;;7.85;85.10;99883.38;5002720;28;20616;-78
2021/04/11 11:55:12;;;;;;;10.30;9.60;;;;;;;7.82;84.73;99899.00;5005783;28;20195;-78
2021/04/11 11:57:41;;;;;;;11.37;10.47;;;;;;;7.76;84.95;99904.28;5000911;28;20210;-77
2021/04/11 12:00:16;;;;;;;11.37;10.57;;;;;;;7.50;84.73;99905.56;5012507;28;20704;-78
2021/04/11 12:03:01;;;;;;;11.73;10.87;;;;;;;7.35;85.41;99917.03;5003050;28;20230;-77
2021/04/11 12:05:37;;;;;;;12.07;11.17;;;;;;;7.26;84.99;99921.50;5013664;28;20210;-78
2021/04/11 12:08:13;;;;;;;10.87;10.17;;;;;;;7.03;84.83;99933.03;5005019;28;20206;-78
2021/04/11 12:10:43;;;;;;;12.27;11.33;;;;;;;7.01;84.42;99934.78;5012771;28;20206;-78